This is the latest recevied weather packets stored in our database for station/object E22FEY-1. If no packets are shown the sender has not sent any weather packets the latest 10 day(s).
| Time | Temp. | Humidity | Pressure | Rain* | Wind** | Luminosity | Snow |
|---|---|---|---|---|---|---|---|
| 1778070927 | 33.89° C | 58% | 1006 hPa | - | - | 0 W/m² | - |
| 1778070827 | 33.89° C | 58% | 1006 hPa | - | - | 0 W/m² | - |
| 1778070735 | 35° C | 55% | 1006 hPa | - | - | 0 W/m² | - |
| 1778069804 | 35° C | 54% | 1007 hPa | - | - | 0 W/m² | - |
| 1778069694 | 35.56° C | 52% | 1007 hPa | - | - | 0 W/m² | - |
| 1778069586 | 35° C | 54% | 1007 hPa | - | - | 0 W/m² | - |
| 1778069496 | 35.56° C | 53% | 1007 hPa | - | - | 0 W/m² | - |
| 1778069421 | 35° C | 54% | 1007 hPa | - | - | 0 W/m² | - |
| 1778069340 | 35.56° C | 53% | 1007 hPa | - | - | 0 W/m² | - |
| 1778069254 | 35.56° C | 54% | 1007 hPa | - | - | 0 W/m² | - |
| 1778069172 | 35° C | 55% | 1007 hPa | - | - | 0 W/m² | - |
| 1778069088 | 35° C | 55% | 1007 hPa | - | - | 0 W/m² | - |
| 1778068997 | 35.56° C | 54% | 1007 hPa | - | - | 0 W/m² | - |
| 1778068901 | 35° C | 55% | 1006 hPa | - | - | 0 W/m² | - |
| 1778068806 | 35° C | 55% | 1006 hPa | - | - | 0 W/m² | - |
| 1778068706 | 35° C | 55% | 1006 hPa | - | - | 0 W/m² | - |
| 1778068601 | 34.44° C | 56% | 1006 hPa | - | - | 0 W/m² | - |
| 1778068495 | 33.89° C | 57% | 1006 hPa | - | - | 0 W/m² | - |
| 1778068381 | 33.33° C | 58% | 1006 hPa | - | - | 0 W/m² | - |
| 1778068271 | 33.89° C | 57% | 1006 hPa | - | - | 0 W/m² | - |
| 1778068155 | 33.89° C | 57% | 1006 hPa | - | - | 0 W/m² | - |
| 1778068037 | 33.89° C | 57% | 1006 hPa | - | - | 0 W/m² | - |
| 1778067919 | 34.44° C | 56% | 1006 hPa | - | - | 0 W/m² | - |
| 1778067825 | 34.44° C | 56% | 1006 hPa | - | - | 0 W/m² | - |
| 1778067732 | 33.89° C | 57% | 1006 hPa | - | - | 0 W/m² | - |
* Rain since midnight (hover to see other rain measurements)
** Current wind speed in m/s (hover to see current wind gust speed)